sensor_id;sensor_type;location;lat;lon;timestamp;pressure;altitude;pressure_sealevel;temperature;humidity
39223;BME280;24936;46.328;11.026;2023-02-10T00:01:14;96021.06;;;-8.59;71.76
39223;BME280;24936;46.328;11.026;2023-02-10T00:03:41;96022.13;;;-8.28;69.93
39223;BME280;24936;46.328;11.026;2023-02-10T00:06:07;96017.94;;;-8.12;68.68
39223;BME280;24936;46.328;11.026;2023-02-10T00:08:33;96027.00;;;-8.59;70.84
39223;BME280;24936;46.328;11.026;2023-02-10T00:11:00;96032.69;;;-8.89;72.34
39223;BME280;24936;46.328;11.026;2023-02-10T00:13:27;96031.63;;;-9.10;73.32
39223;BME280;24936;46.328;11.026;2023-02-10T00:15:53;96035.03;;;-9.11;73.60
39223;BME280;24936;46.328;11.026;2023-02-10T00:18:18;96025.75;;;-9.03;73.05
39223;BME280;24936;46.328;11.026;2023-02-10T00:20:43;96029.34;;;-8.85;72.20
39223;BME280;24936;46.328;11.026;2023-02-10T00:23:09;96032.22;;;-8.42;69.77
39223;BME280;24936;46.328;11.026;2023-02-10T00:25:35;96021.91;;;-8.59;70.21
39223;BME280;24936;46.328;11.026;2023-02-10T00:28:01;96015.78;;;-8.78;70.85
39223;BME280;24936;46.328;11.026;2023-02-10T00:30:26;96021.19;;;-8.38;68.90
39223;BME280;24936;46.328;11.026;2023-02-10T00:32:52;96017.56;;;-8.69;70.04
39223;BME280;24936;46.328;11.026;2023-02-10T00:35:17;96020.97;;;-8.70;70.74
39223;BME280;24936;46.328;11.026;2023-02-10T00:37:42;96018.59;;;-8.44;69.21
39223;BME280;24936;46.328;11.026;2023-02-10T00:40:08;96012.72;;;-8.34;68.61
39223;BME280;24936;46.328;11.026;2023-02-10T00:42:37;96021.19;;;-8.39;68.26
39223;BME280;24936;46.328;11.026;2023-02-10T00:45:02;96022.53;;;-8.83;70.87
39223;BME280;24936;46.328;11.026;2023-02-10T00:47:28;96020.63;;;-9.06;71.98
39223;BME280;24936;46.328;11.026;2023-02-10T00:49:53;96019.91;;;-8.93;71.21
39223;BME280;24936;46.328;11.026;2023-02-10T00:52:21;96014.75;;;-8.97;71.73
39223;BME280;24936;46.328;11.026;2023-02-10T00:54:47;96021.50;;;-9.02;71.94
39223;BME280;24936;46.328;11.026;2023-02-10T00:57:12;96025.72;;;-9.08;72.89
39223;BME280;24936;46.328;11.026;2023-02-10T00:59:37;96024.09;;;-8.98;72.24
39223;BME280;24936;46.328;11.026;2023-02-10T01:02:03;96029.19;;;-8.98;72.53
39223;BME280;24936;46.328;11.026;2023-02-10T01:04:28;96030.09;;;-8.94;71.89
39223;BME280;24936;46.328;11.026;2023-02-10T01:06:53;96022.41;;;-8.96;71.79
39223;BME280;24936;46.328;11.026;2023-02-10T01:09:19;96024.13;;;-8.95;72.05
39223;BME280;24936;46.328;11.026;2023-02-10T01:11:44;96033.50;;;-8.95;71.95
39223;BME280;24936;46.328;11.026;2023-02-10T01:14:10;96020.78;;;-8.91;71.89
39223;BME280;24936;46.328;11.026;2023-02-10T01:16:35;96016.94;;;-9.33;73.18
39223;BME280;24936;46.328;11.026;2023-02-10T01:19:01;96024.44;;;-9.45;74.75
39223;BME280;24936;46.328;11.026;2023-02-10T01:21:27;96025.78;;;-9.74;75.93
39223;BME280;24936;46.328;11.026;2023-02-10T01:23:52;96026.81;;;-9.61;75.41
39223;BME280;24936;46.328;11.026;2023-02-10T01:26:19;96026.06;;;-9.52;75.12
39223;BME280;24936;46.328;11.026;2023-02-10T01:28:44;96017.09;;;-9.17;73.59
39223;BME280;24936;46.328;11.026;2023-02-10T01:31:14;96022.75;;;-9.45;74.24
39223;BME280;24936;46.328;11.026;2023-02-10T01:33:40;96011.53;;;-9.61;75.53
39223;BME280;24936;46.328;11.026;2023-02-10T01:36:11;96012.41;;;-9.59;75.54
39223;BME280;24936;46.328;11.026;2023-02-10T01:38:36;96007.78;;;-9.14;74.29
39223;BME280;24936;46.328;11.026;2023-02-10T01:41:03;96015.63;;;-8.94;73.70
39223;BME280;24936;46.328;11.026;2023-02-10T01:43:29;96003.59;;;-9.09;73.89
39223;BME280;24936;46.328;11.026;2023-02-10T01:45:54;96006.19;;;-9.02;73.56
39223;BME280;24936;46.328;11.026;2023-02-10T01:48:20;95992.47;;;-9.14;73.35
39223;BME280;24936;46.328;11.026;2023-02-10T01:51:00;95987.38;;;-9.12;73.29
39223;BME280;24936;46.328;11.026;2023-02-10T01:53:28;95988.25;;;-9.10;73.38
39223;BME280;24936;46.328;11.026;2023-02-10T01:55:55;95988.72;;;-9.48;74.37
39223;BME280;24936;46.328;11.026;2023-02-10T01:58:25;95986.25;;;-9.39;74.81
39223;BME280;24936;46.328;11.026;2023-02-10T02:00:51;95997.41;;;-9.29;74.07
39223;BME280;24936;46.328;11.026;2023-02-10T02:03:17;96000.88;;;-9.24;73.83
39223;BME280;24936;46.328;11.026;2023-02-10T02:05:43;95996.53;;;-9.33;73.42
39223;BME280;24936;46.328;11.026;2023-02-10T02:08:24;95992.88;;;-9.57;74.65
39223;BME280;24936;46.328;11.026;2023-02-10T02:13:35;95990.28;;;-9.61;74.71
39223;BME280;24936;46.328;11.026;2023-02-10T02:18:43;95992.75;;;-9.66;74.31
39223;BME280;24936;46.328;11.026;2023-02-10T02:29:36;96002.38;;;-9.43;73.54
39223;BME280;24936;46.328;11.026;2023-02-10T02:34:48;96003.91;;;-9.58;73.93
39223;BME280;24936;46.328;11.026;2023-02-10T02:37:19;96003.09;;;-9.55;73.85
39223;BME280;24936;46.328;11.026;2023-02-10T02:39:51;96001.31;;;-9.62;74.24
39223;BME280;24936;46.328;11.026;2023-02-10T02:42:18;95998.06;;;-9.47;74.03
39223;BME280;24936;46.328;11.026;2023-02-10T02:44:44;95989.66;;;-9.40;74.12
39223;BME280;24936;46.328;11.026;2023-02-10T02:52:54;96006.78;;;-9.30;73.37
39223;BME280;24936;46.328;11.026;2023-02-10T03:00:47;95987.50;;;-9.78;75.45
39223;BME280;24936;46.328;11.026;2023-02-10T03:03:16;95977.09;;;-9.97;76.36
39223;BME280;24936;46.328;11.026;2023-02-10T03:05:41;95982.97;;;-10.01;76.61
39223;BME280;24936;46.328;11.026;2023-02-10T03:08:07;95988.44;;;-9.73;75.56
39223;BME280;24936;46.328;11.026;2023-02-10T03:10:32;95988.03;;;-9.30;73.04
39223;BME280;24936;46.328;11.026;2023-02-10T03:12:58;95981.72;;;-9.65;73.89
39223;BME280;24936;46.328;11.026;2023-02-10T03:15:23;95973.97;;;-9.73;74.34
39223;BME280;24936;46.328;11.026;2023-02-10T03:17:48;95975.38;;;-9.98;75.04
39223;BME280;24936;46.328;11.026;2023-02-10T03:20:14;95990.59;;;-10.04;75.77
39223;BME280;24936;46.328;11.026;2023-02-10T03:22:41;95991.41;;;-10.07;76.23
39223;BME280;24936;46.328;11.026;2023-02-10T03:25:07;95990.47;;;-10.12;76.55
39223;BME280;24936;46.328;11.026;2023-02-10T03:27:32;95994.28;;;-9.80;75.18
39223;BME280;24936;46.328;11.026;2023-02-10T03:29:57;96000.19;;;-9.85;74.88
39223;BME280;24936;46.328;11.026;2023-02-10T03:32:23;96000.13;;;-9.89;75.48
39223;BME280;24936;46.328;11.026;2023-02-10T03:34:48;96003.31;;;-10.04;75.69
39223;BME280;24936;46.328;11.026;2023-02-10T03:37:14;95999.34;;;-9.84;75.36
39223;BME280;24936;46.328;11.026;2023-02-10T03:39:39;95994.47;;;-9.66;74.49
39223;BME280;24936;46.328;11.026;2023-02-10T03:42:05;95990.16;;;-9.71;73.99
39223;BME280;24936;46.328;11.026;2023-02-10T03:44:30;95987.94;;;-10.12;75.21
39223;BME280;24936;46.328;11.026;2023-02-10T03:46:56;95988.72;;;-9.50;74.01
39223;BME280;24936;46.328;11.026;2023-02-10T03:52:43;95990.63;;;-10.01;75.27
39223;BME280;24936;46.328;11.026;2023-02-10T03:55:08;95997.94;;;-10.26;75.88
39223;BME280;24936;46.328;11.026;2023-02-10T03:57:34;96001.06;;;-10.46;77.06
39223;BME280;24936;46.328;11.026;2023-02-10T03:59:59;95999.56;;;-10.31;76.73
39223;BME280;24936;46.328;11.026;2023-02-10T04:02:24;96012.19;;;-10.39;76.62
39223;BME280;24936;46.328;11.026;2023-02-10T04:04:50;96007.19;;;-10.31;76.63
39223;BME280;24936;46.328;11.026;2023-02-10T04:07:15;96011.50;;;-10.27;76.69
39223;BME280;24936;46.328;11.026;2023-02-10T04:09:40;96004.94;;;-10.09;76.29
39223;BME280;24936;46.328;11.026;2023-02-10T04:12:06;96007.09;;;-10.40;77.17
39223;BME280;24936;46.328;11.026;2023-02-10T04:14:32;95997.06;;;-10.28;77.34
39223;BME280;24936;46.328;11.026;2023-02-10T04:16:57;96012.63;;;-10.06;75.80
39223;BME280;24936;46.328;11.026;2023-02-10T04:19:22;96006.31;;;-9.70;74.62
39223;BME280;24936;46.328;11.026;2023-02-10T04:21:48;96010.25;;;-9.94;75.52
39223;BME280;24936;46.328;11.026;2023-02-10T04:24:13;96003.16;;;-10.18;75.98
39223;BME280;24936;46.328;11.026;2023-02-10T04:26:39;96004.09;;;-10.11;75.33
39223;BME280;24936;46.328;11.026;2023-02-10T04:29:04;96000.03;;;-9.95;74.93
39223;BME280;24936;46.328;11.026;2023-02-10T04:31:30;96001.41;;;-9.55;73.21
39223;BME280;24936;46.328;11.026;2023-02-10T04:33:55;95989.91;;;-9.92;73.84
39223;BME280;24936;46.328;11.026;2023-02-10T04:36:20;95992.50;;;-9.88;74.34
39223;BME280;24936;46.328;11.026;2023-02-10T04:38:46;95993.34;;;-9.89;74.19
39223;BME280;24936;46.328;11.026;2023-02-10T04:41:11;95993.91;;;-10.08;75.77
39223;BME280;24936;46.328;11.026;2023-02-10T04:43:37;95997.00;;;-10.31;76.50
39223;BME280;24936;46.328;11.026;2023-02-10T04:46:02;95995.16;;;-10.43;77.29
39223;BME280;24936;46.328;11.026;2023-02-10T04:48:29;95991.47;;;-10.62;77.89
39223;BME280;24936;46.328;11.026;2023-02-10T04:50:55;95985.00;;;-10.41;77.53
39223;BME280;24936;46.328;11.026;2023-02-10T04:53:20;95985.22;;;-10.26;76.58
39223;BME280;24936;46.328;11.026;2023-02-10T04:55:45;96000.25;;;-10.45;76.88
39223;BME280;24936;46.328;11.026;2023-02-10T04:58:11;95998.13;;;-10.12;75.85
39223;BME280;24936;46.328;11.026;2023-02-10T05:00:36;95992.13;;;-10.16;75.40
39223;BME280;24936;46.328;11.026;2023-02-10T05:03:02;95998.53;;;-10.46;76.67
39223;BME280;24936;46.328;11.026;2023-02-10T05:05:27;96004.53;;;-10.37;77.04
39223;BME280;24936;46.328;11.026;2023-02-10T05:07:53;95999.72;;;-10.20;76.08
39223;BME280;24936;46.328;11.026;2023-02-10T05:10:19;95999.50;;;-10.34;75.99
39223;BME280;24936;46.328;11.026;2023-02-10T05:12:44;96002.00;;;-10.37;76.39
39223;BME280;24936;46.328;11.026;2023-02-10T05:15:10;95997.63;;;-10.49;77.04
39223;BME280;24936;46.328;11.026;2023-02-10T05:17:38;96006.16;;;-10.44;77.13
39223;BME280;24936;46.328;11.026;2023-02-10T05:20:04;96008.69;;;-10.47;77.16
39223;BME280;24936;46.328;11.026;2023-02-10T05:22:30;96014.69;;;-10.45;77.63
39223;BME280;24936;46.328;11.026;2023-02-10T05:24:56;96018.22;;;-10.31;76.97
39223;BME280;24936;46.328;11.026;2023-02-10T05:27:25;96016.28;;;-10.50;77.07
39223;BME280;24936;46.328;11.026;2023-02-10T05:29:50;96010.16;;;-10.62;77.72
39223;BME280;24936;46.328;11.026;2023-02-10T05:32:16;96008.47;;;-10.63;77.87
39223;BME280;24936;46.328;11.026;2023-02-10T05:34:41;96009.53;;;-10.47;77.13
39223;BME280;24936;46.328;11.026;2023-02-10T05:37:07;96008.81;;;-10.38;76.80
39223;BME280;24936;46.328;11.026;2023-02-10T05:39:32;96013.50;;;-10.06;75.66
39223;BME280;24936;46.328;11.026;2023-02-10T05:41:58;96009.28;;;-10.04;75.65
39223;BME280;24936;46.328;11.026;2023-02-10T05:44:25;96003.31;;;-10.04;75.05
39223;BME280;24936;46.328;11.026;2023-02-10T05:46:51;96007.47;;;-10.09;75.18
39223;BME280;24936;46.328;11.026;2023-02-10T05:49:17;96013.72;;;-9.87;74.29
39223;BME280;24936;46.328;11.026;2023-02-10T05:51:43;96014.28;;;-10.11;74.48
39223;BME280;24936;46.328;11.026;2023-02-10T05:54:09;96022.03;;;-10.04;74.66
39223;BME280;24936;46.328;11.026;2023-02-10T05:56:35;96024.41;;;-10.15;74.68
39223;BME280;24936;46.328;11.026;2023-02-10T05:59:01;96028.72;;;-10.10;74.64
39223;BME280;24936;46.328;11.026;2023-02-10T06:01:27;96023.91;;;-9.90;73.85
39223;BME280;24936;46.328;11.026;2023-02-10T06:03:52;96033.22;;;-9.91;73.34
39223;BME280;24936;46.328;11.026;2023-02-10T06:06:18;96032.03;;;-10.16;73.98
39223;BME280;24936;46.328;11.026;2023-02-10T06:08:44;96037.81;;;-10.28;75.01
39223;BME280;24936;46.328;11.026;2023-02-10T06:11:09;96039.66;;;-10.18;74.98
39223;BME280;24936;46.328;11.026;2023-02-10T06:13:35;96050.72;;;-10.16;75.07
39223;BME280;24936;46.328;11.026;2023-02-10T06:16:00;96047.84;;;-10.40;75.76
39223;BME280;24936;46.328;11.026;2023-02-10T06:18:27;96049.50;;;-10.42;76.65
39223;BME280;24936;46.328;11.026;2023-02-10T06:20:53;96049.84;;;-10.18;75.39
39223;BME280;24936;46.328;11.026;2023-02-10T06:23:18;96044.22;;;-9.95;74.38
39223;BME280;24936;46.328;11.026;2023-02-10T06:25:45;96048.00;;;-9.66;73.35
39223;BME280;24936;46.328;11.026;2023-02-10T06:28:10;96054.28;;;-10.04;73.81
39223;BME280;24936;46.328;11.026;2023-02-10T06:30:36;96058.38;;;-10.14;74.35
39223;BME280;24936;46.328;11.026;2023-02-10T06:33:01;96054.69;;;-10.35;74.64
39223;BME280;24936;46.328;11.026;2023-02-10T06:35:27;96061.34;;;-10.43;75.45
39223;BME280;24936;46.328;11.026;2023-02-10T06:37:52;96058.81;;;-10.45;75.31
39223;BME280;24936;46.328;11.026;2023-02-10T06:40:19;96077.13;;;-10.66;76.18
39223;BME280;24936;46.328;11.026;2023-02-10T06:42:44;96070.16;;;-10.76;77.24
39223;BME280;24936;46.328;11.026;2023-02-10T06:45:10;96068.78;;;-10.58;76.23
39223;BME280;24936;46.328;11.026;2023-02-10T06:47:35;96061.31;;;-9.88;73.67
39223;BME280;24936;46.328;11.026;2023-02-10T06:50:02;96066.47;;;-9.83;72.57
39223;BME280;24936;46.328;11.026;2023-02-10T06:52:28;96066.88;;;-10.14;74.70
39223;BME280;24936;46.328;11.026;2023-02-10T06:54:53;96076.06;;;-10.25;75.46
39223;BME280;24936;46.328;11.026;2023-02-10T06:57:19;96075.31;;;-10.18;75.50
39223;BME280;24936;46.328;11.026;2023-02-10T06:59:44;96077.94;;;-10.13;75.29
39223;BME280;24936;46.328;11.026;2023-02-10T07:02:11;96076.19;;;-10.17;75.53
39223;BME280;24936;46.328;11.026;2023-02-10T07:04:37;96080.88;;;-9.87;74.56
39223;BME280;24936;46.328;11.026;2023-02-10T07:07:02;96080.66;;;-10.01;74.90
39223;BME280;24936;46.328;11.026;2023-02-10T07:09:27;96085.63;;;-10.08;75.16
39223;BME280;24936;46.328;11.026;2023-02-10T07:11:53;96087.88;;;-10.29;76.35
39223;BME280;24936;46.328;11.026;2023-02-10T07:14:19;96086.75;;;-9.91;75.62
39223;BME280;24936;46.328;11.026;2023-02-10T07:16:45;96087.91;;;-9.67;74.25
39223;BME280;24936;46.328;11.026;2023-02-10T07:19:11;96088.84;;;-9.63;73.21
39223;BME280;24936;46.328;11.026;2023-02-10T07:21:36;96087.13;;;-9.63;72.82
39223;BME280;24936;46.328;11.026;2023-02-10T07:24:03;96087.22;;;-9.55;73.01
39223;BME280;24936;46.328;11.026;2023-02-10T07:26:29;96090.50;;;-9.64;73.28
39223;BME280;24936;46.328;11.026;2023-02-10T07:28:54;96104.03;;;-9.71;75.27
39223;BME280;24936;46.328;11.026;2023-02-10T07:31:20;96107.00;;;-9.39;74.07
39223;BME280;24936;46.328;11.026;2023-02-10T07:33:45;96102.72;;;-9.40;73.96
39223;BME280;24936;46.328;11.026;2023-02-10T07:36:11;96101.16;;;-9.28;73.19
39223;BME280;24936;46.328;11.026;2023-02-10T07:38:36;96101.25;;;-9.20;73.42
39223;BME280;24936;46.328;11.026;2023-02-10T07:41:04;96104.34;;;-8.74;71.42
39223;BME280;24936;46.328;11.026;2023-02-10T07:43:29;96100.47;;;-8.25;68.80
39223;BME280;24936;46.328;11.026;2023-02-10T07:45:55;96099.53;;;-8.37;68.97
39223;BME280;24936;46.328;11.026;2023-02-10T07:48:20;96104.56;;;-8.49;70.47
39223;BME280;24936;46.328;11.026;2023-02-10T07:50:47;96105.13;;;-8.78;71.88
39223;BME280;24936;46.328;11.026;2023-02-10T07:53:13;96112.72;;;-8.84;73.00
39223;BME280;24936;46.328;11.026;2023-02-10T07:55:38;96092.97;;;-8.05;68.63
39223;BME280;24936;46.328;11.026;2023-02-10T07:58:04;96083.03;;;-7.63;67.23
39223;BME280;24936;46.328;11.026;2023-02-10T08:00:30;96087.53;;;-7.08;65.90
39223;BME280;24936;46.328;11.026;2023-02-10T08:02:55;96096.09;;;-7.04;64.24
39223;BME280;24936;46.328;11.026;2023-02-10T08:05:21;96100.31;;;-7.13;66.18
39223;BME280;24936;46.328;11.026;2023-02-10T08:07:47;96102.84;;;-7.22;65.50
39223;BME280;24936;46.328;11.026;2023-02-10T08:10:12;96100.25;;;-7.30;66.23
39223;BME280;24936;46.328;11.026;2023-02-10T08:12:38;96095.13;;;-7.28;66.86
39223;BME280;24936;46.328;11.026;2023-02-10T08:15:05;96099.47;;;-7.10;67.26
39223;BME280;24936;46.328;11.026;2023-02-10T08:17:30;96101.34;;;-6.64;65.12
39223;BME280;24936;46.328;11.026;2023-02-10T08:19:56;96088.53;;;-5.97;62.19
39223;BME280;24936;46.328;11.026;2023-02-10T08:22:21;96099.72;;;-6.06;61.90
39223;BME280;24936;46.328;11.026;2023-02-10T08:24:47;96099.69;;;-6.00;62.12
39223;BME280;24936;46.328;11.026;2023-02-10T08:27:12;96093.69;;;-5.99;61.63
39223;BME280;24936;46.328;11.026;2023-02-10T08:29:38;96103.94;;;-5.96;60.66
39223;BME280;24936;46.328;11.026;2023-02-10T08:32:03;96103.94;;;-5.87;59.53
39223;BME280;24936;46.328;11.026;2023-02-10T08:34:29;96106.50;;;-5.87;59.33
39223;BME280;24936;46.328;11.026;2023-02-10T08:36:54;96100.53;;;-5.95;60.22
39223;BME280;24936;46.328;11.026;2023-02-10T08:39:20;96099.66;;;-5.86;62.30
39223;BME280;24936;46.328;11.026;2023-02-10T08:41:47;96116.75;;;-5.74;61.30
39223;BME280;24936;46.328;11.026;2023-02-10T08:44:13;96107.31;;;-5.75;61.82
39223;BME280;24936;46.328;11.026;2023-02-10T08:46:38;96103.03;;;-5.58;60.59
39223;BME280;24936;46.328;11.026;2023-02-10T08:49:04;96098.72;;;-5.49;61.21
39223;BME280;24936;46.328;11.026;2023-02-10T08:51:30;96109.78;;;-5.18;60.97
39223;BME280;24936;46.328;11.026;2023-02-10T08:53:59;96113.19;;;-5.11;61.00
39223;BME280;24936;46.328;11.026;2023-02-10T08:56:24;96115.72;;;-4.99;60.05
39223;BME280;24936;46.328;11.026;2023-02-10T08:58:50;96111.09;;;-4.32;61.12
39223;BME280;24936;46.328;11.026;2023-02-10T09:01:21;96113.69;;;-3.32;56.92
39223;BME280;24936;46.328;11.026;2023-02-10T09:03:48;96108.75;;;-2.74;53.17
39223;BME280;24936;46.328;11.026;2023-02-10T09:06:19;96106.13;;;-2.71;52.53
39223;BME280;24936;46.328;11.026;2023-02-10T09:08:47;96108.81;;;-2.16;52.40
39223;BME280;24936;46.328;11.026;2023-02-10T09:11:15;96106.81;;;-0.54;49.16
39223;BME280;24936;46.328;11.026;2023-02-10T09:13:40;96103.75;;;0.07;46.41
39223;BME280;24936;46.328;11.026;2023-02-10T09:16:06;96098.88;;;1.28;44.38
39223;BME280;24936;46.328;11.026;2023-02-10T09:18:32;96089.81;;;2.81;40.42
39223;BME280;24936;46.328;11.026;2023-02-10T09:20:58;96095.50;;;3.87;38.13
39223;BME280;24936;46.328;11.026;2023-02-10T09:23:24;96100.66;;;4.11;36.99
39223;BME280;24936;46.328;11.026;2023-02-10T09:25:57;96097.00;;;3.47;37.15
39223;BME280;24936;46.328;11.026;2023-02-10T09:28:23;96102.47;;;3.41;37.00
39223;BME280;24936;46.328;11.026;2023-02-10T09:30:48;96096.13;;;3.94;37.00
39223;BME280;24936;46.328;11.026;2023-02-10T09:33:14;96102.41;;;3.88;36.83
39223;BME280;24936;46.328;11.026;2023-02-10T09:35:40;96098.19;;;4.73;35.26
39223;BME280;24936;46.328;11.026;2023-02-10T09:38:07;96084.56;;;5.27;34.06
39223;BME280;24936;46.328;11.026;2023-02-10T09:40:33;96084.53;;;5.28;34.61
39223;BME280;24936;46.328;11.026;2023-02-10T09:43:06;96089.31;;;6.33;32.59
39223;BME280;24936;46.328;11.026;2023-02-10T09:45:35;96090.34;;;6.11;32.34
39223;BME280;24936;46.328;11.026;2023-02-10T09:53:19;96090.41;;;6.64;31.15
39223;BME280;24936;46.328;11.026;2023-02-10T09:56:01;96088.69;;;6.82;31.02
39223;BME280;24936;46.328;11.026;2023-02-10T09:58:49;96090.53;;;7.65;30.49
39223;BME280;24936;46.328;11.026;2023-02-10T10:01:25;96085.97;;;7.69;28.89
39223;BME280;24936;46.328;11.026;2023-02-10T10:06:34;96097.78;;;7.60;29.31
39223;BME280;24936;46.328;11.026;2023-02-10T10:11:43;96093.34;;;6.76;30.44
39223;BME280;24936;46.328;11.026;2023-02-10T10:14:25;96089.03;;;6.57;30.84
39223;BME280;24936;46.328;11.026;2023-02-10T10:17:19;96096.22;;;6.34;29.70
39223;BME280;24936;46.328;11.026;2023-02-10T10:22:46;96082.00;;;6.22;29.38
39223;BME280;24936;46.328;11.026;2023-02-10T10:30:44;96069.97;;;8.53;25.87
39223;BME280;24936;46.328;11.026;2023-02-10T10:35:59;96072.50;;;6.74;28.19
39223;BME280;24936;46.328;11.026;2023-02-10T10:38:32;96074.88;;;6.43;28.60
39223;BME280;24936;46.328;11.026;2023-02-10T10:41:03;96063.09;;;5.41;30.04
39223;BME280;24936;46.328;11.026;2023-02-10T10:43:37;96059.84;;;6.30;29.82
39223;BME280;24936;46.328;11.026;2023-02-10T10:46:48;96049.69;;;5.68;30.79
39223;BME280;24936;46.328;11.026;2023-02-10T10:49:15;96048.94;;;6.56;29.34
39223;BME280;24936;46.328;11.026;2023-02-10T10:51:41;96038.25;;;5.51;31.00
39223;BME280;24936;46.328;11.026;2023-02-10T10:54:12;96046.56;;;5.40;32.14
39223;BME280;24936;46.328;11.026;2023-02-10T10:59:47;96038.69;;;6.34;28.66
39223;BME280;24936;46.328;11.026;2023-02-10T11:02:27;96026.72;;;6.48;28.26
39223;BME280;24936;46.328;11.026;2023-02-10T11:05:11;96018.16;;;6.79;29.44
39223;BME280;24936;46.328;11.026;2023-02-10T11:07:39;96013.41;;;7.03;26.48
39223;BME280;24936;46.328;11.026;2023-02-10T11:10:06;96013.66;;;6.48;26.60
39223;BME280;24936;46.328;11.026;2023-02-10T11:12:34;96014.91;;;7.41;25.91
39223;BME280;24936;46.328;11.026;2023-02-10T11:15:01;96002.91;;;8.78;23.12
39223;BME280;24936;46.328;11.026;2023-02-10T11:17:36;96001.44;;;8.27;24.73
39223;BME280;24936;46.328;11.026;2023-02-10T11:22:38;95998.66;;;8.61;25.30
39223;BME280;24936;46.328;11.026;2023-02-10T11:27:56;95988.25;;;7.50;26.45
39223;BME280;24936;46.328;11.026;2023-02-10T11:30:30;95989.13;;;7.17;27.95
39223;BME280;24936;46.328;11.026;2023-02-10T11:32:56;95976.34;;;8.38;26.39
39223;BME280;24936;46.328;11.026;2023-02-10T11:35:23;95974.34;;;9.73;24.17
39223;BME280;24936;46.328;11.026;2023-02-10T11:37:59;95977.53;;;8.48;25.92
39223;BME280;24936;46.328;11.026;2023-02-10T11:40:27;95974.34;;;8.27;25.39
39223;BME280;24936;46.328;11.026;2023-02-10T11:42:59;95962.22;;;9.00;24.76
39223;BME280;24936;46.328;11.026;2023-02-10T11:45:30;95972.03;;;8.37;24.74
39223;BME280;24936;46.328;11.026;2023-02-10T11:48:04;95966.53;;;8.86;25.11
39223;BME280;24936;46.328;11.026;2023-02-10T11:50:34;95950.94;;;8.54;25.14
39223;BME280;24936;46.328;11.026;2023-02-10T11:53:00;95951.50;;;8.29;26.08
39223;BME280;24936;46.328;11.026;2023-02-10T11:55:33;95941.97;;;8.42;25.81
39223;BME280;24936;46.328;11.026;2023-02-10T12:07:06;95929.78;;;7.80;26.42
39223;BME280;24936;46.328;11.026;2023-02-10T12:18:22;95932.25;;;7.84;25.77
39223;BME280;24936;46.328;11.026;2023-02-10T12:21:48;95917.31;;;8.31;25.66
39223;BME280;24936;46.328;11.026;2023-02-10T12:26:54;95926.34;;;8.10;26.92
39223;BME280;24936;46.328;11.026;2023-02-10T12:38:02;95914.81;;;7.99;26.17
39223;BME280;24936;46.328;11.026;2023-02-10T12:46:17;95902.75;;;9.55;25.50
39223;BME280;24936;46.328;11.026;2023-02-10T12:53:58;95897.00;;;9.21;23.16
39223;BME280;24936;46.328;11.026;2023-02-10T12:56:45;95889.94;;;10.96;24.35
39223;BME280;24936;46.328;11.026;2023-02-10T12:59:19;95885.13;;;9.98;23.05
39223;BME280;24936;46.328;11.026;2023-02-10T13:01:51;95889.53;;;9.97;24.48
39223;BME280;24936;46.328;11.026;2023-02-10T13:04:27;95882.94;;;9.77;24.90
39223;BME280;24936;46.328;11.026;2023-02-10T13:06:59;95885.69;;;8.92;24.32
39223;BME280;24936;46.328;11.026;2023-02-10T13:12:17;95874.72;;;9.41;24.34
39223;BME280;24936;46.328;11.026;2023-02-10T13:14:48;95867.94;;;10.45;24.74
39223;BME280;24936;46.328;11.026;2023-02-10T13:17:16;95867.34;;;8.63;23.77
39223;BME280;24936;46.328;11.026;2023-02-10T13:20:02;95865.28;;;9.66;24.63
39223;BME280;24936;46.328;11.026;2023-02-10T13:25:33;95861.06;;;9.36;23.01
39223;BME280;24936;46.328;11.026;2023-02-10T13:28:22;95861.16;;;8.64;24.08
39223;BME280;24936;46.328;11.026;2023-02-10T13:31:13;95855.50;;;9.41;23.25
39223;BME280;24936;46.328;11.026;2023-02-10T13:36:24;95851.94;;;8.85;23.72
39223;BME280;24936;46.328;11.026;2023-02-10T13:41:39;95861.47;;;9.70;23.21
39223;BME280;24936;46.328;11.026;2023-02-10T13:49:57;95858.53;;;8.78;22.96
39223;BME280;24936;46.328;11.026;2023-02-10T13:52:28;95857.16;;;9.00;23.82
39223;BME280;24936;46.328;11.026;2023-02-10T13:55:24;95856.84;;;8.63;24.06
39223;BME280;24936;46.328;11.026;2023-02-10T13:57:57;95855.53;;;8.84;23.49
39223;BME280;24936;46.328;11.026;2023-02-10T14:00:24;95852.47;;;8.33;24.85
39223;BME280;24936;46.328;11.026;2023-02-10T14:05:36;95845.03;;;8.55;25.87
39223;BME280;24936;46.328;11.026;2023-02-10T14:13:59;95848.81;;;7.76;23.44
39223;BME280;24936;46.328;11.026;2023-02-10T14:16:36;95843.47;;;8.08;23.00
39223;BME280;24936;46.328;11.026;2023-02-10T14:19:06;95845.66;;;7.85;22.78
39223;BME280;24936;46.328;11.026;2023-02-10T14:21:45;95844.41;;;8.21;24.06
39223;BME280;24936;46.328;11.026;2023-02-10T14:24:33;95850.78;;;8.17;23.09
39223;BME280;24936;46.328;11.026;2023-02-10T14:27:04;95838.28;;;7.92;22.87
39223;BME280;24936;46.328;11.026;2023-02-10T14:29:32;95844.25;;;8.39;23.33
39223;BME280;24936;46.328;11.026;2023-02-10T14:32:01;95842.00;;;8.33;22.35
39223;BME280;24936;46.328;11.026;2023-02-10T14:34:31;95846.94;;;7.78;23.21
39223;BME280;24936;46.328;11.026;2023-02-10T14:37:02;95843.34;;;7.64;23.99
39223;BME280;24936;46.328;11.026;2023-02-10T14:39:30;95845.97;;;7.64;24.19
39223;BME280;24936;46.328;11.026;2023-02-10T14:41:59;95840.38;;;7.24;25.32
39223;BME280;24936;46.328;11.026;2023-02-10T14:44:37;95851.09;;;6.87;25.19
39223;BME280;24936;46.328;11.026;2023-02-10T14:47:05;95854.28;;;6.61;26.62
39223;BME280;24936;46.328;11.026;2023-02-10T14:49:31;95853.19;;;6.81;27.77
39223;BME280;24936;46.328;11.026;2023-02-10T14:52:02;95848.09;;;6.12;27.21
39223;BME280;24936;46.328;11.026;2023-02-10T14:54:28;95848.16;;;5.75;28.25
39223;BME280;24936;46.328;11.026;2023-02-10T14:57:01;95851.94;;;5.50;28.45
39223;BME280;24936;46.328;11.026;2023-02-10T14:59:29;95852.56;;;5.56;28.09
39223;BME280;24936;46.328;11.026;2023-02-10T15:01:58;95843.75;;;5.41;28.55